sensor_id;sensor_type;location;lat;lon;timestamp;pressure;altitude;pressure_sealevel;temperature;humidity
64602;BME280;68371;42.630;23.192;2023-10-19T00:00:31;92390.56;;;7.98;97.15
64602;BME280;68371;42.630;23.192;2023-10-19T00:02:59;92383.84;;;7.88;97.83
64602;BME280;68371;42.630;23.192;2023-10-19T00:05:28;92387.63;;;7.99;96.63
64602;BME280;68371;42.630;23.192;2023-10-19T00:07:55;92382.00;;;8.10;95.95
64602;BME280;68371;42.630;23.192;2023-10-19T00:10:22;92373.59;;;8.04;95.70
64602;BME280;68371;42.630;23.192;2023-10-19T00:12:50;92379.25;;;8.06;95.83
64602;BME280;68371;42.630;23.192;2023-10-19T00:15:25;92371.16;;;7.99;95.78
64602;BME280;68371;42.630;23.192;2023-10-19T00:17:58;92364.84;;;8.00;95.38
64602;BME280;68371;42.630;23.192;2023-10-19T00:20:34;92368.34;;;8.04;94.55
64602;BME280;68371;42.630;23.192;2023-10-19T00:23:15;92367.78;;;7.98;94.29
64602;BME280;68371;42.630;23.192;2023-10-19T00:25:44;92366.63;;;7.87;94.37
64602;BME280;68371;42.630;23.192;2023-10-19T00:28:10;92367.25;;;7.84;94.49
64602;BME280;68371;42.630;23.192;2023-10-19T00:30:40;92361.81;;;7.68;95.39
64602;BME280;68371;42.630;23.192;2023-10-19T00:33:09;92351.34;;;7.68;94.73
64602;BME280;68371;42.630;23.192;2023-10-19T00:35:41;92359.97;;;7.69;95.12
64602;BME280;68371;42.630;23.192;2023-10-19T00:38:23;92363.34;;;7.69;95.16
64602;BME280;68371;42.630;23.192;2023-10-19T00:41:07;92364.69;;;7.54;95.71
64602;BME280;68371;42.630;23.192;2023-10-19T00:43:38;92363.00;;;7.50;95.64
64602;BME280;68371;42.630;23.192;2023-10-19T00:46:08;92365.59;;;7.58;94.99
64602;BME280;68371;42.630;23.192;2023-10-19T00:48:37;92361.94;;;7.51;94.93
64602;BME280;68371;42.630;23.192;2023-10-19T00:51:05;92366.72;;;7.49;95.30
64602;BME280;68371;42.630;23.192;2023-10-19T00:53:45;92359.31;;;7.51;94.60
64602;BME280;68371;42.630;23.192;2023-10-19T00:56:14;92368.56;;;7.48;94.39
64602;BME280;68371;42.630;23.192;2023-10-19T00:58:45;92357.97;;;7.45;94.35
64602;BME280;68371;42.630;23.192;2023-10-19T01:01:21;92354.13;;;7.42;94.40
64602;BME280;68371;42.630;23.192;2023-10-19T01:03:50;92353.72;;;7.31;94.45
64602;BME280;68371;42.630;23.192;2023-10-19T01:06:21;92353.13;;;7.26;93.89
64602;BME280;68371;42.630;23.192;2023-10-19T01:08:48;92360.84;;;7.22;94.92
64602;BME280;68371;42.630;23.192;2023-10-19T01:11:16;92364.53;;;7.21;95.40
64602;BME280;68371;42.630;23.192;2023-10-19T01:13:46;92370.41;;;7.09;95.71
64602;BME280;68371;42.630;23.192;2023-10-19T01:16:14;92365.81;;;7.06;96.22
64602;BME280;68371;42.630;23.192;2023-10-19T01:18:50;92367.78;;;7.18;96.41
64602;BME280;68371;42.630;23.192;2023-10-19T01:21:22;92369.16;;;7.15;96.53
64602;BME280;68371;42.630;23.192;2023-10-19T01:23:54;92364.06;;;7.19;96.17
64602;BME280;68371;42.630;23.192;2023-10-19T01:26:21;92364.81;;;7.19;95.87
64602;BME280;68371;42.630;23.192;2023-10-19T01:28:52;92357.31;;;7.18;95.63
64602;BME280;68371;42.630;23.192;2023-10-19T01:31:26;92359.19;;;7.09;95.32
64602;BME280;68371;42.630;23.192;2023-10-19T01:34:03;92358.28;;;7.05;95.77
64602;BME280;68371;42.630;23.192;2023-10-19T01:36:32;92350.59;;;7.08;95.69
64602;BME280;68371;42.630;23.192;2023-10-19T01:39:04;92355.97;;;7.03;94.93
64602;BME280;68371;42.630;23.192;2023-10-19T01:41:35;92355.97;;;7.03;95.10
64602;BME280;68371;42.630;23.192;2023-10-19T01:44:01;92360.00;;;7.00;93.90
64602;BME280;68371;42.630;23.192;2023-10-19T01:46:34;92365.84;;;6.97;94.37
64602;BME280;68371;42.630;23.192;2023-10-19T01:49:01;92368.94;;;6.91;94.62
64602;BME280;68371;42.630;23.192;2023-10-19T01:51:30;92365.06;;;6.97;93.94
64602;BME280;68371;42.630;23.192;2023-10-19T01:53:58;92353.25;;;6.91;93.95
64602;BME280;68371;42.630;23.192;2023-10-19T01:56:27;92364.34;;;6.88;93.90
64602;BME280;68371;42.630;23.192;2023-10-19T01:58:53;92367.88;;;6.83;93.93
64602;BME280;68371;42.630;23.192;2023-10-19T02:01:20;92355.94;;;6.73;94.38
64602;BME280;68371;42.630;23.192;2023-10-19T02:03:55;92353.63;;;6.72;94.17
64602;BME280;68371;42.630;23.192;2023-10-19T02:06:24;92356.84;;;6.69;94.15
64602;BME280;68371;42.630;23.192;2023-10-19T02:09:00;92353.78;;;6.67;94.26
64602;BME280;68371;42.630;23.192;2023-10-19T02:11:36;92357.94;;;6.68;93.77
64602;BME280;68371;42.630;23.192;2023-10-19T02:14:03;92366.06;;;6.75;93.21
64602;BME280;68371;42.630;23.192;2023-10-19T02:16:39;92361.03;;;6.52;93.24
64602;BME280;68371;42.630;23.192;2023-10-19T02:19:05;92352.16;;;6.53;93.34
64602;BME280;68371;42.630;23.192;2023-10-19T02:21:31;92367.66;;;6.50;93.06
64602;BME280;68371;42.630;23.192;2023-10-19T02:23:58;92365.03;;;6.50;93.12
64602;BME280;68371;42.630;23.192;2023-10-19T02:26:25;92356.91;;;6.42;92.82
64602;BME280;68371;42.630;23.192;2023-10-19T02:28:53;92361.22;;;6.38;93.01
64602;BME280;68371;42.630;23.192;2023-10-19T02:31:22;92344.03;;;6.20;93.02
64602;BME280;68371;42.630;23.192;2023-10-19T02:33:52;92346.34;;;6.21;93.04
64602;BME280;68371;42.630;23.192;2023-10-19T02:36:24;92357.53;;;6.22;93.58
64602;BME280;68371;42.630;23.192;2023-10-19T02:38:54;92358.47;;;6.26;93.68
64602;BME280;68371;42.630;23.192;2023-10-19T02:41:24;92357.88;;;6.20;92.18
64602;BME280;68371;42.630;23.192;2023-10-19T02:43:53;92360.50;;;6.20;92.46
64602;BME280;68371;42.630;23.192;2023-10-19T02:46:27;92351.28;;;6.14;93.09
64602;BME280;68371;42.630;23.192;2023-10-19T02:48:54;92353.72;;;6.19;92.82
64602;BME280;68371;42.630;23.192;2023-10-19T02:51:21;92356.66;;;6.00;93.52
64602;BME280;68371;42.630;23.192;2023-10-19T02:53:47;92351.56;;;6.04;93.56
64602;BME280;68371;42.630;23.192;2023-10-19T02:56:15;92352.50;;;5.99;93.83
64602;BME280;68371;42.630;23.192;2023-10-19T02:58:43;92360.75;;;5.93;94.03
64602;BME280;68371;42.630;23.192;2023-10-19T03:01:16;92348.47;;;5.93;93.84
64602;BME280;68371;42.630;23.192;2023-10-19T03:03:48;92346.63;;;5.85;94.71
64602;BME280;68371;42.630;23.192;2023-10-19T03:06:19;92346.81;;;5.97;94.37
64602;BME280;68371;42.630;23.192;2023-10-19T03:08:46;92341.25;;;5.81;94.29
64602;BME280;68371;42.630;23.192;2023-10-19T03:11:13;92341.72;;;5.83;94.44
64602;BME280;68371;42.630;23.192;2023-10-19T03:13:39;92336.97;;;5.68;95.26
64602;BME280;68371;42.630;23.192;2023-10-19T03:16:09;92339.13;;;5.83;95.92
64602;BME280;68371;42.630;23.192;2023-10-19T03:18:36;92339.56;;;5.86;96.01
64602;BME280;68371;42.630;23.192;2023-10-19T03:21:04;92337.13;;;5.89;95.14
64602;BME280;68371;42.630;23.192;2023-10-19T03:23:31;92334.34;;;5.59;96.53
64602;BME280;68371;42.630;23.192;2023-10-19T03:25:59;92334.50;;;5.63;96.63
64602;BME280;68371;42.630;23.192;2023-10-19T03:28:47;92341.09;;;5.69;96.93
64602;BME280;68371;42.630;23.192;2023-10-19T03:31:20;92342.19;;;5.77;96.56
64602;BME280;68371;42.630;23.192;2023-10-19T03:33:49;92345.41;;;5.74;97.01
64602;BME280;68371;42.630;23.192;2023-10-19T03:36:20;92341.59;;;5.80;97.67
64602;BME280;68371;42.630;23.192;2023-10-19T03:38:48;92336.97;;;5.86;98.26
64602;BME280;68371;42.630;23.192;2023-10-19T03:41:17;92338.06;;;5.93;98.23
64602;BME280;68371;42.630;23.192;2023-10-19T03:43:47;92329.31;;;5.98;98.80
64602;BME280;68371;42.630;23.192;2023-10-19T03:46:15;92327.78;;;6.06;98.98
64602;BME280;68371;42.630;23.192;2023-10-19T03:48:49;92324.88;;;6.07;99.41
64602;BME280;68371;42.630;23.192;2023-10-19T03:51:16;92314.28;;;6.12;99.52
64602;BME280;68371;42.630;23.192;2023-10-19T03:53:44;92317.50;;;6.27;98.94
64602;BME280;68371;42.630;23.192;2023-10-19T03:56:14;92318.56;;;6.26;98.93
64602;BME280;68371;42.630;23.192;2023-10-19T03:58:43;92311.53;;;6.09;100.00
64602;BME280;68371;42.630;23.192;2023-10-19T04:01:12;92309.38;;;6.19;100.00
64602;BME280;68371;42.630;23.192;2023-10-19T04:03:42;92313.06;;;6.18;100.00
64602;BME280;68371;42.630;23.192;2023-10-19T04:06:10;92309.38;;;6.19;100.00
64602;BME280;68371;42.630;23.192;2023-10-19T04:08:39;92317.94;;;6.37;100.00
64602;BME280;68371;42.630;23.192;2023-10-19T04:11:06;92321.63;;;6.28;100.00
64602;BME280;68371;42.630;23.192;2023-10-19T04:13:37;92317.19;;;6.37;100.00
64602;BME280;68371;42.630;23.192;2023-10-19T04:16:04;92317.78;;;6.34;100.00
64602;BME280;68371;42.630;23.192;2023-10-19T04:18:33;92317.75;;;6.42;100.00
64602;BME280;68371;42.630;23.192;2023-10-19T04:21:03;92313.00;;;6.45;100.00
64602;BME280;68371;42.630;23.192;2023-10-19T04:23:31;92312.22;;;6.53;100.00
64602;BME280;68371;42.630;23.192;2023-10-19T04:26:00;92314.38;;;6.59;100.00
64602;BME280;68371;42.630;23.192;2023-10-19T04:28:31;92309.56;;;6.70;100.00
64602;BME280;68371;42.630;23.192;2023-10-19T04:31:03;92310.16;;;6.76;100.00
64602;BME280;68371;42.630;23.192;2023-10-19T04:33:32;92302.59;;;6.83;100.00
64602;BME280;68371;42.630;23.192;2023-10-19T04:36:00;92302.88;;;6.90;100.00
64602;BME280;68371;42.630;23.192;2023-10-19T04:38:27;92297.47;;;6.95;100.00
64602;BME280;68371;42.630;23.192;2023-10-19T04:41:05;92294.25;;;6.98;100.00
64602;BME280;68371;42.630;23.192;2023-10-19T04:43:33;92292.22;;;7.04;100.00
64602;BME280;68371;42.630;23.192;2023-10-19T04:46:04;92289.44;;;7.09;100.00
64602;BME280;68371;42.630;23.192;2023-10-19T04:48:33;92285.28;;;7.08;100.00
64602;BME280;68371;42.630;23.192;2023-10-19T04:51:01;92276.25;;;7.06;100.00
64602;BME280;68371;42.630;23.192;2023-10-19T04:53:29;92293.00;;;7.05;100.00
64602;BME280;68371;42.630;23.192;2023-10-19T04:55:56;92281.94;;;7.08;100.00
64602;BME280;68371;42.630;23.192;2023-10-19T04:58:24;92289.13;;;7.11;100.00
64602;BME280;68371;42.630;23.192;2023-10-19T05:00:52;92283.88;;;7.11;100.00
64602;BME280;68371;42.630;23.192;2023-10-19T05:03:19;92279.72;;;7.18;100.00
64602;BME280;68371;42.630;23.192;2023-10-19T05:05:45;92280.59;;;7.22;100.00
64602;BME280;68371;42.630;23.192;2023-10-19T05:08:12;92277.22;;;7.22;100.00
64602;BME280;68371;42.630;23.192;2023-10-19T05:10:39;92273.75;;;7.39;100.00
64602;BME280;68371;42.630;23.192;2023-10-19T05:13:07;92283.97;;;7.53;100.00
64602;BME280;68371;42.630;23.192;2023-10-19T05:15:35;92277.44;;;7.38;100.00
64602;BME280;68371;42.630;23.192;2023-10-19T05:18:02;92286.22;;;7.33;100.00
64602;BME280;68371;42.630;23.192;2023-10-19T05:20:30;92274.31;;;7.45;100.00
64602;BME280;68371;42.630;23.192;2023-10-19T05:22:56;92276.03;;;7.61;99.98
64602;BME280;68371;42.630;23.192;2023-10-19T05:25:25;92279.41;;;7.62;100.00
64602;BME280;68371;42.630;23.192;2023-10-19T05:27:53;92274.06;;;7.79;99.12
64602;BME280;68371;42.630;23.192;2023-10-19T05:30:20;92281.22;;;7.91;98.89
64602;BME280;68371;42.630;23.192;2023-10-19T05:32:50;92276.88;;;7.95;98.38
64602;BME280;68371;42.630;23.192;2023-10-19T05:35:17;92274.47;;;8.02;97.92
64602;BME280;68371;42.630;23.192;2023-10-19T05:37:48;92293.63;;;8.15;97.44
64602;BME280;68371;42.630;23.192;2023-10-19T05:40:15;92296.28;;;8.28;97.10
64602;BME280;68371;42.630;23.192;2023-10-19T05:42:43;92295.31;;;8.32;97.05
64602;BME280;68371;42.630;23.192;2023-10-19T05:45:10;92290.19;;;8.36;97.33
64602;BME280;68371;42.630;23.192;2023-10-19T05:47:38;92289.94;;;8.50;97.11
64602;BME280;68371;42.630;23.192;2023-10-19T05:50:07;92287.78;;;8.64;96.98
64602;BME280;68371;42.630;23.192;2023-10-19T05:52:33;92295.34;;;8.90;96.84
64602;BME280;68371;42.630;23.192;2023-10-19T05:55:00;92298.84;;;8.94;97.25
64602;BME280;68371;42.630;23.192;2023-10-19T05:57:28;92301.91;;;9.09;96.66
64602;BME280;68371;42.630;23.192;2023-10-19T05:59:54;92303.66;;;9.29;95.42
64602;BME280;68371;42.630;23.192;2023-10-19T06:02:21;92302.53;;;9.42;95.53
64602;BME280;68371;42.630;23.192;2023-10-19T06:04:49;92303.41;;;9.47;94.99
64602;BME280;68371;42.630;23.192;2023-10-19T06:07:17;92304.72;;;9.65;93.99
64602;BME280;68371;42.630;23.192;2023-10-19T06:09:43;92303.78;;;9.86;94.60
64602;BME280;68371;42.630;23.192;2023-10-19T06:12:10;92300.16;;;9.90;93.61
64602;BME280;68371;42.630;23.192;2023-10-19T06:14:37;92299.97;;;10.11;93.66
64602;BME280;68371;42.630;23.192;2023-10-19T06:17:03;92293.88;;;10.07;92.67
64602;BME280;68371;42.630;23.192;2023-10-19T06:19:30;92299.16;;;10.23;92.21
64602;BME280;68371;42.630;23.192;2023-10-19T06:21:57;92300.91;;;10.31;90.75
64602;BME280;68371;42.630;23.192;2023-10-19T06:24:26;92296.19;;;10.37;91.01
64602;BME280;68371;42.630;23.192;2023-10-19T06:26:53;92294.25;;;10.50;90.70
64602;BME280;68371;42.630;23.192;2023-10-19T06:29:21;92295.28;;;10.45;89.89
64602;BME280;68371;42.630;23.192;2023-10-19T06:31:52;92289.44;;;10.52;89.92
64602;BME280;68371;42.630;23.192;2023-10-19T06:34:18;92293.28;;;10.54;89.25
64602;BME280;68371;42.630;23.192;2023-10-19T06:36:48;92292.16;;;10.55;88.53
64602;BME280;68371;42.630;23.192;2023-10-19T06:39:16;92284.09;;;10.64;89.04
64602;BME280;68371;42.630;23.192;2023-10-19T06:41:44;92295.97;;;10.58;88.96
64602;BME280;68371;42.630;23.192;2023-10-19T06:44:11;92301.50;;;10.69;89.54
64602;BME280;68371;42.630;23.192;2023-10-19T06:46:38;92271.41;;;10.66;88.43
64602;BME280;68371;42.630;23.192;2023-10-19T06:49:05;92289.72;;;10.94;87.60
64602;BME280;68371;42.630;23.192;2023-10-19T06:51:33;92282.03;;;11.01;88.03
64602;BME280;68371;42.630;23.192;2023-10-19T06:54:00;92278.78;;;11.08;87.23
64602;BME280;68371;42.630;23.192;2023-10-19T06:56:27;92264.88;;;11.23;87.61
64602;BME280;68371;42.630;23.192;2023-10-19T06:58:55;92258.56;;;11.44;87.02
64602;BME280;68371;42.630;23.192;2023-10-19T07:01:22;92248.53;;;11.50;84.79
64602;BME280;68371;42.630;23.192;2023-10-19T07:03:51;92248.91;;;11.87;80.20
64602;BME280;68371;42.630;23.192;2023-10-19T07:06:19;92260.09;;;12.00;82.25
64602;BME280;68371;42.630;23.192;2023-10-19T07:08:46;92273.66;;;12.02;80.16
64602;BME280;68371;42.630;23.192;2023-10-19T07:11:13;92269.38;;;12.13;79.02
64602;BME280;68371;42.630;23.192;2023-10-19T07:13:39;92288.34;;;12.22;81.13
64602;BME280;68371;42.630;23.192;2023-10-19T07:16:11;92273.44;;;12.30;77.75
64602;BME280;68371;42.630;23.192;2023-10-19T07:18:38;92274.34;;;12.38;78.44
64602;BME280;68371;42.630;23.192;2023-10-19T07:21:04;92271.47;;;12.47;78.74
64602;BME280;68371;42.630;23.192;2023-10-19T07:23:34;92282.16;;;12.54;79.18
64602;BME280;68371;42.630;23.192;2023-10-19T07:26:03;92278.13;;;12.60;77.76
64602;BME280;68371;42.630;23.192;2023-10-19T07:28:32;92282.41;;;12.45;77.16
64602;BME280;68371;42.630;23.192;2023-10-19T07:30:58;92286.00;;;12.17;78.28
64602;BME280;68371;42.630;23.192;2023-10-19T07:33:26;92285.44;;;12.08;78.80
64602;BME280;68371;42.630;23.192;2023-10-19T07:35:53;92288.84;;;11.73;79.39
64602;BME280;68371;42.630;23.192;2023-10-19T07:38:22;92286.78;;;11.47;80.90
64602;BME280;68371;42.630;23.192;2023-10-19T07:40:49;92289.09;;;11.33;82.04
64602;BME280;68371;42.630;23.192;2023-10-19T07:43:18;92296.75;;;11.38;82.62
64602;BME280;68371;42.630;23.192;2023-10-19T07:45:45;92305.03;;;11.56;82.44
64602;BME280;68371;42.630;23.192;2023-10-19T07:48:13;92307.81;;;11.63;81.97
64602;BME280;68371;42.630;23.192;2023-10-19T07:50:41;92310.22;;;11.52;82.15
64602;BME280;68371;42.630;23.192;2023-10-19T07:53:08;92304.34;;;11.59;82.44
64602;BME280;68371;42.630;23.192;2023-10-19T07:55:36;92315.03;;;11.66;81.74
64602;BME280;68371;42.630;23.192;2023-10-19T07:58:04;92316.09;;;11.81;80.90
64602;BME280;68371;42.630;23.192;2023-10-19T08:00:31;92309.38;;;11.83;81.68
64602;BME280;68371;42.630;23.192;2023-10-19T08:02:59;92304.09;;;11.64;81.88
64602;BME280;68371;42.630;23.192;2023-10-19T08:05:26;92319.06;;;11.79;82.25
64602;BME280;68371;42.630;23.192;2023-10-19T08:07:54;92313.84;;;11.99;81.44
64602;BME280;68371;42.630;23.192;2023-10-19T08:10:22;92302.78;;;12.09;81.17
64602;BME280;68371;42.630;23.192;2023-10-19T08:12:50;92301.31;;;12.12;80.85
64602;BME280;68371;42.630;23.192;2023-10-19T08:15:18;92301.25;;;12.08;81.16
64602;BME280;68371;42.630;23.192;2023-10-19T08:17:47;92308.81;;;12.10;81.08
64602;BME280;68371;42.630;23.192;2023-10-19T08:20:15;92292.09;;;12.02;82.41
64602;BME280;68371;42.630;23.192;2023-10-19T08:22:49;92303.28;;;12.15;81.65
64602;BME280;68371;42.630;23.192;2023-10-19T08:25:17;92300.75;;;12.22;81.62
64602;BME280;68371;42.630;23.192;2023-10-19T08:27:45;92301.09;;;12.40;81.06
64602;BME280;68371;42.630;23.192;2023-10-19T08:30:15;92297.69;;;12.59;80.95
64602;BME280;68371;42.630;23.192;2023-10-19T08:32:43;92305.53;;;12.98;76.85
64602;BME280;68371;42.630;23.192;2023-10-19T08:35:13;92297.25;;;13.22;76.20
64602;BME280;68371;42.630;23.192;2023-10-19T08:37:40;92297.69;;;13.51;74.45
64602;BME280;68371;42.630;23.192;2023-10-19T08:40:10;92302.00;;;13.63;72.75
64602;BME280;68371;42.630;23.192;2023-10-19T08:42:41;92303.91;;;13.62;73.92
64602;BME280;68371;42.630;23.192;2023-10-19T08:45:09;92307.53;;;13.81;75.02
64602;BME280;68371;42.630;23.192;2023-10-19T08:47:41;92306.28;;;13.71;73.18
64602;BME280;68371;42.630;23.192;2023-10-19T08:50:13;92320.75;;;13.81;73.34
64602;BME280;68371;42.630;23.192;2023-10-19T08:52:41;92317.88;;;13.93;73.70
64602;BME280;68371;42.630;23.192;2023-10-19T08:55:08;92320.88;;;13.92;73.89
64602;BME280;68371;42.630;23.192;2023-10-19T08:57:40;92327.88;;;14.07;73.74
64602;BME280;68371;42.630;23.192;2023-10-19T09:00:09;92325.09;;;13.96;74.47
64602;BME280;68371;42.630;23.192;2023-10-19T09:02:36;92331.44;;;13.92;73.67
64602;BME280;68371;42.630;23.192;2023-10-19T09:05:08;92319.75;;;13.93;74.09
64602;BME280;68371;42.630;23.192;2023-10-19T09:07:45;92310.81;;;13.71;75.55
64602;BME280;68371;42.630;23.192;2023-10-19T09:10:15;92296.75;;;13.93;75.34
64602;BME280;68371;42.630;23.192;2023-10-19T09:12:43;92285.38;;;14.19;73.26
64602;BME280;68371;42.630;23.192;2023-10-19T09:15:22;92281.72;;;14.31;73.97
64602;BME280;68371;42.630;23.192;2023-10-19T09:17:50;92275.09;;;14.45;70.87
64602;BME280;68371;42.630;23.192;2023-10-19T09:20:20;92285.34;;;14.50;68.11
64602;BME280;68371;42.630;23.192;2023-10-19T09:22:52;92284.72;;;14.60;68.16
64602;BME280;68371;42.630;23.192;2023-10-19T09:25:20;92272.53;;;14.55;67.52
64602;BME280;68371;42.630;23.192;2023-10-19T09:27:49;92260.25;;;14.67;67.19
64602;BME280;68371;42.630;23.192;2023-10-19T09:30:17;92270.19;;;14.84;65.47
64602;BME280;68371;42.630;23.192;2023-10-19T09:32:46;92254.00;;;14.89;65.74
64602;BME280;68371;42.630;23.192;2023-10-19T09:35:14;92245.44;;;15.03;66.05
64602;BME280;68371;42.630;23.192;2023-10-19T09:37:41;92247.09;;;15.22;67.07
64602;BME280;68371;42.630;23.192;2023-10-19T09:40:09;92247.13;;;15.26;65.62
64602;BME280;68371;42.630;23.192;2023-10-19T09:42:39;92253.25;;;15.37;67.22
64602;BME280;68371;42.630;23.192;2023-10-19T09:45:14;92235.84;;;15.36;65.06
64602;BME280;68371;42.630;23.192;2023-10-19T09:47:49;92250.72;;;15.58;63.13
64602;BME280;68371;42.630;23.192;2023-10-19T09:50:16;92248.25;;;15.84;62.44
64602;BME280;68371;42.630;23.192;2023-10-19T09:52:43;92253.94;;;15.86;63.62
64602;BME280;68371;42.630;23.192;2023-10-19T09:55:13;92255.44;;;15.87;62.57
64602;BME280;68371;42.630;23.192;2023-10-19T09:57:48;92256.22;;;15.84;62.76
64602;BME280;68371;42.630;23.192;2023-10-19T10:00:19;92260.69;;;15.76;62.87
64602;BME280;68371;42.630;23.192;2023-10-19T10:02:49;92240.13;;;15.58;63.49
64602;BME280;68371;42.630;23.192;2023-10-19T10:05:47;92269.09;;;15.92;64.95
64602;BME280;68371;42.630;23.192;2023-10-19T10:08:32;92261.59;;;16.05;64.42
64602;BME280;68371;42.630;23.192;2023-10-19T10:11:13;92258.25;;;16.22;64.65
64602;BME280;68371;42.630;23.192;2023-10-19T10:13:41;92268.13;;;16.22;62.20
64602;BME280;68371;42.630;23.192;2023-10-19T10:16:09;92268.50;;;16.24;63.14
64602;BME280;68371;42.630;23.192;2023-10-19T10:18:41;92258.84;;;15.80;60.74
64602;BME280;68371;42.630;23.192;2023-10-19T10:21:11;92242.63;;;15.92;61.92
64602;BME280;68371;42.630;23.192;2023-10-19T10:23:41;92248.75;;;16.18;62.16
64602;BME280;68371;42.630;23.192;2023-10-19T10:26:10;92238.53;;;16.09;61.10
64602;BME280;68371;42.630;23.192;2023-10-19T10:28:37;92227.91;;;16.09;62.74
64602;BME280;68371;42.630;23.192;2023-10-19T10:31:11;92236.72;;;16.35;63.77
64602;BME280;68371;42.630;23.192;2023-10-19T10:33:41;92227.66;;;16.43;61.53
64602;BME280;68371;42.630;23.192;2023-10-19T10:36:10;92224.66;;;16.62;62.61
64602;BME280;68371;42.630;23.192;2023-10-19T10:38:38;92204.59;;;16.76;62.32
64602;BME280;68371;42.630;23.192;2023-10-19T10:41:05;92188.72;;;16.97;60.68
64602;BME280;68371;42.630;23.192;2023-10-19T10:43:48;92206.50;;;17.18;58.51
64602;BME280;68371;42.630;23.192;2023-10-19T10:46:18;92194.00;;;17.08;58.16
64602;BME280;68371;42.630;23.192;2023-10-19T10:48:45;92191.34;;;17.26;59.20
64602;BME280;68371;42.630;23.192;2023-10-19T10:51:21;92202.34;;;17.28;57.64
64602;BME280;68371;42.630;23.192;2023-10-19T10:53:49;92187.13;;;17.50;58.70
64602;BME280;68371;42.630;23.192;2023-10-19T10:56:16;92182.56;;;17.47;56.16
64602;BME280;68371;42.630;23.192;2023-10-19T10:58:43;92172.72;;;17.48;56.86
64602;BME280;68371;42.630;23.192;2023-10-19T11:01:11;92171.94;;;17.58;57.57
64602;BME280;68371;42.630;23.192;2023-10-19T11:03:40;92157.88;;;17.65;56.79
64602;BME280;68371;42.630;23.192;2023-10-19T11:06:08;92146.94;;;17.52;56.19
64602;BME280;68371;42.630;23.192;2023-10-19T11:08:35;92156.31;;;17.89;58.32
64602;BME280;68371;42.630;23.192;2023-10-19T11:11:04;92163.44;;;18.06;55.36
64602;BME280;68371;42.630;23.192;2023-10-19T11:13:31;92159.22;;;18.12;56.40
64602;BME280;68371;42.630;23.192;2023-10-19T11:16:03;92157.28;;;18.20;58.26
64602;BME280;68371;42.630;23.192;2023-10-19T11:18:33;92159.91;;;18.27;55.11
64602;BME280;68371;42.630;23.192;2023-10-19T11:21:03;92150.78;;;18.28;56.05
64602;BME280;68371;42.630;23.192;2023-10-19T11:23:37;92151.00;;;18.55;57.36
64602;BME280;68371;42.630;23.192;2023-10-19T11:26:03;92153.22;;;18.64;53.39
64602;BME280;68371;42.630;23.192;2023-10-19T11:28:31;92141.34;;;18.76;54.67
64602;BME280;68371;42.630;23.192;2023-10-19T11:31:10;92146.09;;;19.02;53.40
64602;BME280;68371;42.630;23.192;2023-10-19T11:33:39;92157.34;;;19.21;54.81
64602;BME280;68371;42.630;23.192;2023-10-19T11:36:08;92144.22;;;19.41;51.72
64602;BME280;68371;42.630;23.192;2023-10-19T11:38:40;92121.81;;;19.38;50.71
64602;BME280;68371;42.630;23.192;2023-10-19T11:41:08;92132.63;;;19.20;52.05
64602;BME280;68371;42.630;23.192;2023-10-19T11:43:34;92133.00;;;19.23;51.15
64602;BME280;68371;42.630;23.192;2023-10-19T11:46:01;92138.44;;;19.08;51.01
64602;BME280;68371;42.630;23.192;2023-10-19T11:48:30;92132.19;;;19.26;53.01
64602;BME280;68371;42.630;23.192;2023-10-19T11:50:57;92130.91;;;19.41;52.12
64602;BME280;68371;42.630;23.192;2023-10-19T11:53:25;92124.47;;;19.38;51.24
64602;BME280;68371;42.630;23.192;2023-10-19T11:55:52;92128.34;;;19.30;51.40
64602;BME280;68371;42.630;23.192;2023-10-19T11:58:19;92133.25;;;19.32;52.09
64602;BME280;68371;42.630;23.192;2023-10-19T12:00:45;92131.09;;;19.19;50.97
64602;BME280;68371;42.630;23.192;2023-10-19T12:03:13;92136.88;;;19.14;51.25
64602;BME280;68371;42.630;23.192;2023-10-19T12:05:40;92135.00;;;19.08;52.57
64602;BME280;68371;42.630;23.192;2023-10-19T12:08:07;92131.09;;;19.19;51.51
64602;BME280;68371;42.630;23.192;2023-10-19T12:10:35;92112.97;;;19.45;49.90
64602;BME280;68371;42.630;23.192;2023-10-19T12:13:04;92127.25;;;19.24;49.62
64602;BME280;68371;42.630;23.192;2023-10-19T12:15:33;92131.38;;;19.32;49.08
64602;BME280;68371;42.630;23.192;2023-10-19T12:18:00;92125.91;;;19.05;49.47
64602;BME280;68371;42.630;23.192;2023-10-19T12:20:28;92114.50;;;19.08;51.15
64602;BME280;68371;42.630;23.192;2023-10-19T12:22:56;92106.25;;;19.33;49.82
64602;BME280;68371;42.630;23.192;2023-10-19T12:25:24;92112.31;;;19.72;49.17
64602;BME280;68371;42.630;23.192;2023-10-19T12:27:57;92101.63;;;19.75;48.55
64602;BME280;68371;42.630;23.192;2023-10-19T12:30:24;92105.34;;;19.81;48.49
64602;BME280;68371;42.630;23.192;2023-10-19T12:32:51;92100.09;;;20.05;47.96
64602;BME280;68371;42.630;23.192;2023-10-19T12:35:19;92087.53;;;20.06;46.92
64602;BME280;68371;42.630;23.192;2023-10-19T12:37:49;92098.03;;;20.16;46.83
64602;BME280;68371;42.630;23.192;2023-10-19T12:40:17;92091.50;;;20.48;47.08
64602;BME280;68371;42.630;23.192;2023-10-19T12:42:54;92074.56;;;20.62;48.43
64602;BME280;68371;42.630;23.192;2023-10-19T12:45:24;92077.72;;;20.77;46.50
64602;BME280;68371;42.630;23.192;2023-10-19T12:47:51;92090.16;;;21.11;46.56
64602;BME280;68371;42.630;23.192;2023-10-19T12:50:18;92091.53;;;21.39;46.14
64602;BME280;68371;42.630;23.192;2023-10-19T12:52:48;92091.22;;;21.57;45.41
64602;BME280;68371;42.630;23.192;2023-10-19T12:55:15;92080.63;;;21.53;46.58
64602;BME280;68371;42.630;23.192;2023-10-19T12:57:42;92080.59;;;21.73;45.74
64602;BME280;68371;42.630;23.192;2023-10-19T13:00:10;92084.47;;;21.89;45.29
64602;BME280;68371;42.630;23.192;2023-10-19T13:02:52;92069.66;;;22.04;45.28